sensor_id;sensor_type;location;lat;lon;timestamp;temperature;humidity
26230;DHT22;13960;50.860;4.352;2023-02-01T00:01:20;7.50;99.90
26230;DHT22;13960;50.860;4.352;2023-02-01T00:03:45;7.50;99.90
26230;DHT22;13960;50.860;4.352;2023-02-01T00:06:11;7.60;99.90
26230;DHT22;13960;50.860;4.352;2023-02-01T00:08:37;7.60;99.90
26230;DHT22;13960;50.860;4.352;2023-02-01T00:11:06;7.60;99.90
26230;DHT22;13960;50.860;4.352;2023-02-01T00:13:33;7.50;99.90
26230;DHT22;13960;50.860;4.352;2023-02-01T00:18:32;7.40;99.90
26230;DHT22;13960;50.860;4.352;2023-02-01T00:20:58;7.40;99.90
26230;DHT22;13960;50.860;4.352;2023-02-01T00:23:23;7.30;99.90
26230;DHT22;13960;50.860;4.352;2023-02-01T00:25:49;7.30;99.90
26230;DHT22;13960;50.860;4.352;2023-02-01T00:28:14;7.30;99.90
26230;DHT22;13960;50.860;4.352;2023-02-01T00:30:40;7.30;99.90
26230;DHT22;13960;50.860;4.352;2023-02-01T00:33:07;7.40;99.90
26230;DHT22;13960;50.860;4.352;2023-02-01T00:35:35;7.30;99.90
26230;DHT22;13960;50.860;4.352;2023-02-01T00:38:01;7.30;99.90
26230;DHT22;13960;50.860;4.352;2023-02-01T00:40:27;7.30;99.90
26230;DHT22;13960;50.860;4.352;2023-02-01T00:42:52;7.30;99.90
26230;DHT22;13960;50.860;4.352;2023-02-01T00:45:19;7.30;99.90
26230;DHT22;13960;50.860;4.352;2023-02-01T00:47:45;7.30;99.90
26230;DHT22;13960;50.860;4.352;2023-02-01T00:50:10;7.30;99.90
26230;DHT22;13960;50.860;4.352;2023-02-01T00:52:36;7.30;99.90
26230;DHT22;13960;50.860;4.352;2023-02-01T00:55:01;7.40;99.90
26230;DHT22;13960;50.860;4.352;2023-02-01T00:57:27;7.40;99.90
26230;DHT22;13960;50.860;4.352;2023-02-01T00:59:53;7.50;99.90
26230;DHT22;13960;50.860;4.352;2023-02-01T01:02:18;7.60;99.90
26230;DHT22;13960;50.860;4.352;2023-02-01T01:04:44;7.60;99.90
26230;DHT22;13960;50.860;4.352;2023-02-01T01:07:09;7.60;99.90
26230;DHT22;13960;50.860;4.352;2023-02-01T01:09:35;7.50;99.90
26230;DHT22;13960;50.860;4.352;2023-02-01T01:12:00;7.40;99.90
26230;DHT22;13960;50.860;4.352;2023-02-01T01:14:31;7.40;99.90
26230;DHT22;13960;50.860;4.352;2023-02-01T01:16:57;7.30;99.90
26230;DHT22;13960;50.860;4.352;2023-02-01T01:19:22;7.30;99.90
26230;DHT22;13960;50.860;4.352;2023-02-01T01:21:48;7.30;99.90
26230;DHT22;13960;50.860;4.352;2023-02-01T01:24:13;7.30;99.90
26230;DHT22;13960;50.860;4.352;2023-02-01T01:26:39;7.30;99.90
26230;DHT22;13960;50.860;4.352;2023-02-01T01:29:05;7.30;99.90
26230;DHT22;13960;50.860;4.352;2023-02-01T01:31:31;7.30;99.90
26230;DHT22;13960;50.860;4.352;2023-02-01T01:33:57;7.30;99.90
26230;DHT22;13960;50.860;4.352;2023-02-01T01:36:23;7.40;99.90
26230;DHT22;13960;50.860;4.352;2023-02-01T01:38:49;7.40;99.90
26230;DHT22;13960;50.860;4.352;2023-02-01T01:41:16;7.40;99.90
26230;DHT22;13960;50.860;4.352;2023-02-01T01:46:22;7.30;99.90
26230;DHT22;13960;50.860;4.352;2023-02-01T01:48:50;7.30;99.90
26230;DHT22;13960;50.860;4.352;2023-02-01T01:51:17;7.40;99.90
26230;DHT22;13960;50.860;4.352;2023-02-01T01:53:45;7.30;99.90
26230;DHT22;13960;50.860;4.352;2023-02-01T01:56:12;7.30;99.90
26230;DHT22;13960;50.860;4.352;2023-02-01T01:58:38;7.30;99.90
26230;DHT22;13960;50.860;4.352;2023-02-01T02:01:04;7.30;99.90
26230;DHT22;13960;50.860;4.352;2023-02-01T02:03:34;7.30;99.90
26230;DHT22;13960;50.860;4.352;2023-02-01T02:06:00;7.30;99.90
26230;DHT22;13960;50.860;4.352;2023-02-01T02:08:27;7.30;99.90
26230;DHT22;13960;50.860;4.352;2023-02-01T02:10:53;7.20;99.90
26230;DHT22;13960;50.860;4.352;2023-02-01T02:13:37;7.20;99.90
26230;DHT22;13960;50.860;4.352;2023-02-01T02:16:05;7.20;99.90
26230;DHT22;13960;50.860;4.352;2023-02-01T02:26:10;7.10;99.90
26230;DHT22;13960;50.860;4.352;2023-02-01T02:34:22;7.10;99.90
26230;DHT22;13960;50.860;4.352;2023-02-01T02:36:56;7.00;99.90
26230;DHT22;13960;50.860;4.352;2023-02-01T02:44:54;7.10;99.90
26230;DHT22;13960;50.860;4.352;2023-02-01T02:47:45;7.10;99.90
26230;DHT22;13960;50.860;4.352;2023-02-01T02:53:00;7.20;99.90
26230;DHT22;13960;50.860;4.352;2023-02-01T02:55:46;7.20;99.90
26230;DHT22;13960;50.860;4.352;2023-02-01T02:58:12;7.20;99.90
26230;DHT22;13960;50.860;4.352;2023-02-01T03:00:57;7.10;99.90
26230;DHT22;13960;50.860;4.352;2023-02-01T03:03:42;7.00;99.90
26230;DHT22;13960;50.860;4.352;2023-02-01T03:06:26;7.00;99.90
26230;DHT22;13960;50.860;4.352;2023-02-01T03:08:53;7.00;99.90
26230;DHT22;13960;50.860;4.352;2023-02-01T03:11:22;7.00;99.90
26230;DHT22;13960;50.860;4.352;2023-02-01T03:13:53;7.00;99.90
26230;DHT22;13960;50.860;4.352;2023-02-01T03:16:21;7.00;99.90
26230;DHT22;13960;50.860;4.352;2023-02-01T03:21:21;6.90;99.90
26230;DHT22;13960;50.860;4.352;2023-02-01T03:23:47;6.90;99.90
26230;DHT22;13960;50.860;4.352;2023-02-01T03:26:14;6.90;99.90
26230;DHT22;13960;50.860;4.352;2023-02-01T03:28:43;6.90;99.90
26230;DHT22;13960;50.860;4.352;2023-02-01T03:31:09;6.90;99.90
26230;DHT22;13960;50.860;4.352;2023-02-01T03:33:34;6.90;99.90
26230;DHT22;13960;50.860;4.352;2023-02-01T03:41:35;6.80;99.90
26230;DHT22;13960;50.860;4.352;2023-02-01T03:49:37;6.80;99.90
26230;DHT22;13960;50.860;4.352;2023-02-01T03:52:01;6.70;99.90
26230;DHT22;13960;50.860;4.352;2023-02-01T03:54:27;6.70;99.90
26230;DHT22;13960;50.860;4.352;2023-02-01T03:56:54;6.80;99.90
26230;DHT22;13960;50.860;4.352;2023-02-01T03:59:20;6.70;99.90
26230;DHT22;13960;50.860;4.352;2023-02-01T04:01:46;6.70;99.90
26230;DHT22;13960;50.860;4.352;2023-02-01T04:04:12;6.70;99.90
26230;DHT22;13960;50.860;4.352;2023-02-01T04:06:51;6.60;99.90
26230;DHT22;13960;50.860;4.352;2023-02-01T04:09:17;6.60;99.90
26230;DHT22;13960;50.860;4.352;2023-02-01T04:11:42;6.70;99.90
26230;DHT22;13960;50.860;4.352;2023-02-01T04:14:08;6.60;99.90
26230;DHT22;13960;50.860;4.352;2023-02-01T04:16:34;6.50;99.90
26230;DHT22;13960;50.860;4.352;2023-02-01T04:18:59;6.50;99.90
26230;DHT22;13960;50.860;4.352;2023-02-01T04:21:25;6.50;99.90
26230;DHT22;13960;50.860;4.352;2023-02-01T04:23:51;6.40;99.90
26230;DHT22;13960;50.860;4.352;2023-02-01T04:26:19;6.40;99.90
26230;DHT22;13960;50.860;4.352;2023-02-01T04:28:47;6.40;99.90
26230;DHT22;13960;50.860;4.352;2023-02-01T04:31:16;6.40;99.90
26230;DHT22;13960;50.860;4.352;2023-02-01T04:33:42;6.40;99.90
26230;DHT22;13960;50.860;4.352;2023-02-01T04:36:08;6.40;99.90
26230;DHT22;13960;50.860;4.352;2023-02-01T04:38:33;6.40;99.90
26230;DHT22;13960;50.860;4.352;2023-02-01T04:40:59;6.30;99.90
26230;DHT22;13960;50.860;4.352;2023-02-01T04:43:24;6.30;99.90
26230;DHT22;13960;50.860;4.352;2023-02-01T04:45:50;6.30;99.90
26230;DHT22;13960;50.860;4.352;2023-02-01T04:48:17;6.30;99.90
26230;DHT22;13960;50.860;4.352;2023-02-01T04:50:43;6.20;99.90
26230;DHT22;13960;50.860;4.352;2023-02-01T04:53:10;6.20;99.90
26230;DHT22;13960;50.860;4.352;2023-02-01T04:55:37;6.30;99.90
26230;DHT22;13960;50.860;4.352;2023-02-01T04:58:02;6.30;99.90
26230;DHT22;13960;50.860;4.352;2023-02-01T05:00:28;6.20;99.90
26230;DHT22;13960;50.860;4.352;2023-02-01T05:02:53;6.10;99.90
26230;DHT22;13960;50.860;4.352;2023-02-01T05:05:19;6.20;99.90
26230;DHT22;13960;50.860;4.352;2023-02-01T05:07:45;6.10;99.90
26230;DHT22;13960;50.860;4.352;2023-02-01T05:10:11;6.10;99.90
26230;DHT22;13960;50.860;4.352;2023-02-01T05:12:36;6.10;99.90
26230;DHT22;13960;50.860;4.352;2023-02-01T05:15:20;6.00;99.90
26230;DHT22;13960;50.860;4.352;2023-02-01T05:17:46;6.00;99.90
26230;DHT22;13960;50.860;4.352;2023-02-01T05:20:11;6.00;99.90
26230;DHT22;13960;50.860;4.352;2023-02-01T05:22:37;5.90;99.90
26230;DHT22;13960;50.860;4.352;2023-02-01T05:25:02;5.90;99.90
26230;DHT22;13960;50.860;4.352;2023-02-01T05:27:29;5.80;99.90
26230;DHT22;13960;50.860;4.352;2023-02-01T05:29:54;5.70;99.90
26230;DHT22;13960;50.860;4.352;2023-02-01T05:32:20;5.70;99.90
26230;DHT22;13960;50.860;4.352;2023-02-01T05:34:45;5.70;99.90
26230;DHT22;13960;50.860;4.352;2023-02-01T05:37:11;5.60;99.90
26230;DHT22;13960;50.860;4.352;2023-02-01T05:39:36;5.60;99.90
26230;DHT22;13960;50.860;4.352;2023-02-01T05:42:02;5.50;99.90
26230;DHT22;13960;50.860;4.352;2023-02-01T05:44:28;5.50;99.90
26230;DHT22;13960;50.860;4.352;2023-02-01T05:46:53;5.50;99.90
26230;DHT22;13960;50.860;4.352;2023-02-01T05:49:19;5.40;99.90
26230;DHT22;13960;50.860;4.352;2023-02-01T05:51:44;5.40;99.90
26230;DHT22;13960;50.860;4.352;2023-02-01T05:54:10;5.30;99.90
26230;DHT22;13960;50.860;4.352;2023-02-01T05:56:36;5.30;99.90
26230;DHT22;13960;50.860;4.352;2023-02-01T05:59:01;5.20;99.90
26230;DHT22;13960;50.860;4.352;2023-02-01T06:01:27;5.20;99.90
26230;DHT22;13960;50.860;4.352;2023-02-01T06:03:52;5.20;99.90
26230;DHT22;13960;50.860;4.352;2023-02-01T06:06:18;5.20;99.90
26230;DHT22;13960;50.860;4.352;2023-02-01T06:08:45;5.20;99.90
26230;DHT22;13960;50.860;4.352;2023-02-01T06:11:11;5.20;99.90
26230;DHT22;13960;50.860;4.352;2023-02-01T06:13:38;5.20;99.90
26230;DHT22;13960;50.860;4.352;2023-02-01T06:16:04;5.20;99.90
26230;DHT22;13960;50.860;4.352;2023-02-01T06:18:32;5.20;99.90
26230;DHT22;13960;50.860;4.352;2023-02-01T06:20:58;5.20;99.90
26230;DHT22;13960;50.860;4.352;2023-02-01T06:23:28;5.20;99.90
26230;DHT22;13960;50.860;4.352;2023-02-01T06:25:58;5.20;99.90
26230;DHT22;13960;50.860;4.352;2023-02-01T06:28:24;5.20;99.90
26230;DHT22;13960;50.860;4.352;2023-02-01T06:30:50;5.20;99.90
26230;DHT22;13960;50.860;4.352;2023-02-01T06:33:15;5.30;99.90
26230;DHT22;13960;50.860;4.352;2023-02-01T06:35:41;5.30;99.90
26230;DHT22;13960;50.860;4.352;2023-02-01T06:38:09;5.30;99.90
26230;DHT22;13960;50.860;4.352;2023-02-01T06:40:35;5.30;99.90
26230;DHT22;13960;50.860;4.352;2023-02-01T06:43:01;5.30;99.90
26230;DHT22;13960;50.860;4.352;2023-02-01T06:45:26;5.30;99.90
26230;DHT22;13960;50.860;4.352;2023-02-01T06:47:52;5.30;99.90
26230;DHT22;13960;50.860;4.352;2023-02-01T06:50:17;5.30;99.90
26230;DHT22;13960;50.860;4.352;2023-02-01T06:52:43;5.20;99.90
26230;DHT22;13960;50.860;4.352;2023-02-01T06:55:08;5.20;99.90
26230;DHT22;13960;50.860;4.352;2023-02-01T06:57:34;5.20;99.90
26230;DHT22;13960;50.860;4.352;2023-02-01T07:00:02;5.20;99.90
26230;DHT22;13960;50.860;4.352;2023-02-01T07:02:28;5.10;99.90
26230;DHT22;13960;50.860;4.352;2023-02-01T07:04:53;5.10;99.90
26230;DHT22;13960;50.860;4.352;2023-02-01T07:07:19;5.10;99.90
26230;DHT22;13960;50.860;4.352;2023-02-01T07:09:45;5.10;99.90
26230;DHT22;13960;50.860;4.352;2023-02-01T07:12:11;5.10;99.90
26230;DHT22;13960;50.860;4.352;2023-02-01T07:14:36;5.10;99.90
26230;DHT22;13960;50.860;4.352;2023-02-01T07:17:02;5.10;99.90
26230;DHT22;13960;50.860;4.352;2023-02-01T07:19:27;5.10;99.90
26230;DHT22;13960;50.860;4.352;2023-02-01T07:21:53;5.10;99.90
26230;DHT22;13960;50.860;4.352;2023-02-01T07:24:18;5.10;99.90
26230;DHT22;13960;50.860;4.352;2023-02-01T07:26:44;5.10;99.90
26230;DHT22;13960;50.860;4.352;2023-02-01T07:29:09;5.10;99.90
26230;DHT22;13960;50.860;4.352;2023-02-01T07:31:35;5.10;99.90
26230;DHT22;13960;50.860;4.352;2023-02-01T07:34:01;5.10;99.90
26230;DHT22;13960;50.860;4.352;2023-02-01T07:36:27;5.10;99.90
26230;DHT22;13960;50.860;4.352;2023-02-01T07:38:53;5.10;99.90
26230;DHT22;13960;50.860;4.352;2023-02-01T07:41:20;5.10;99.90
26230;DHT22;13960;50.860;4.352;2023-02-01T07:43:45;5.10;99.90
26230;DHT22;13960;50.860;4.352;2023-02-01T07:46:11;5.10;99.90
26230;DHT22;13960;50.860;4.352;2023-02-01T07:48:37;5.20;99.90
26230;DHT22;13960;50.860;4.352;2023-02-01T07:51:04;5.10;99.90
26230;DHT22;13960;50.860;4.352;2023-02-01T07:53:30;5.20;99.90
26230;DHT22;13960;50.860;4.352;2023-02-01T07:55:56;5.20;99.90
26230;DHT22;13960;50.860;4.352;2023-02-01T07:58:22;5.20;99.90
26230;DHT22;13960;50.860;4.352;2023-02-01T08:00:47;5.20;99.90
26230;DHT22;13960;50.860;4.352;2023-02-01T08:03:32;5.20;99.90
26230;DHT22;13960;50.860;4.352;2023-02-01T08:05:57;5.20;99.90
26230;DHT22;13960;50.860;4.352;2023-02-01T08:08:23;5.30;99.90
26230;DHT22;13960;50.860;4.352;2023-02-01T08:10:48;5.30;99.90
26230;DHT22;13960;50.860;4.352;2023-02-01T08:13:15;5.30;99.90
26230;DHT22;13960;50.860;4.352;2023-02-01T08:15:41;5.20;99.90
26230;DHT22;13960;50.860;4.352;2023-02-01T08:18:07;5.30;99.90
26230;DHT22;13960;50.860;4.352;2023-02-01T08:20:34;5.20;99.90
26230;DHT22;13960;50.860;4.352;2023-02-01T08:23:01;5.20;99.90
26230;DHT22;13960;50.860;4.352;2023-02-01T08:25:27;5.30;99.90
26230;DHT22;13960;50.860;4.352;2023-02-01T08:27:53;5.30;99.90
26230;DHT22;13960;50.860;4.352;2023-02-01T08:30:20;5.30;99.90
26230;DHT22;13960;50.860;4.352;2023-02-01T08:32:45;5.30;99.90
26230;DHT22;13960;50.860;4.352;2023-02-01T08:35:11;5.30;99.90
26230;DHT22;13960;50.860;4.352;2023-02-01T08:37:36;5.30;99.90
26230;DHT22;13960;50.860;4.352;2023-02-01T08:40:02;5.30;99.90
26230;DHT22;13960;50.860;4.352;2023-02-01T08:42:28;5.40;99.90
26230;DHT22;13960;50.860;4.352;2023-02-01T08:45:12;5.40;99.90
26230;DHT22;13960;50.860;4.352;2023-02-01T08:47:38;5.50;99.90
26230;DHT22;13960;50.860;4.352;2023-02-01T08:50:05;5.50;99.90
26230;DHT22;13960;50.860;4.352;2023-02-01T08:52:32;5.60;99.90
26230;DHT22;13960;50.860;4.352;2023-02-01T08:54:57;5.60;99.90
26230;DHT22;13960;50.860;4.352;2023-02-01T08:57:23;5.60;99.90
26230;DHT22;13960;50.860;4.352;2023-02-01T08:59:49;5.70;99.90
26230;DHT22;13960;50.860;4.352;2023-02-01T09:02:15;5.70;99.90
26230;DHT22;13960;50.860;4.352;2023-02-01T09:04:41;5.70;99.90
26230;DHT22;13960;50.860;4.352;2023-02-01T09:07:07;5.70;99.90
26230;DHT22;13960;50.860;4.352;2023-02-01T09:09:33;5.80;99.90
26230;DHT22;13960;50.860;4.352;2023-02-01T09:11:59;5.90;99.90
26230;DHT22;13960;50.860;4.352;2023-02-01T09:14:25;5.80;99.90
26230;DHT22;13960;50.860;4.352;2023-02-01T09:16:54;6.00;99.90
26230;DHT22;13960;50.860;4.352;2023-02-01T09:19:28;6.00;99.90
26230;DHT22;13960;50.860;4.352;2023-02-01T09:21:55;6.10;99.90
26230;DHT22;13960;50.860;4.352;2023-02-01T09:24:21;6.10;99.90
26230;DHT22;13960;50.860;4.352;2023-02-01T09:26:49;6.20;99.90
26230;DHT22;13960;50.860;4.352;2023-02-01T09:29:20;6.20;99.90
26230;DHT22;13960;50.860;4.352;2023-02-01T09:31:52;6.30;99.90
26230;DHT22;13960;50.860;4.352;2023-02-01T09:34:21;6.30;99.90
26230;DHT22;13960;50.860;4.352;2023-02-01T09:36:46;6.40;99.90
26230;DHT22;13960;50.860;4.352;2023-02-01T09:39:12;6.30;99.90
26230;DHT22;13960;50.860;4.352;2023-02-01T09:46:41;6.50;99.90
26230;DHT22;13960;50.860;4.352;2023-02-01T09:49:12;6.60;99.90
26230;DHT22;13960;50.860;4.352;2023-02-01T09:51:46;6.70;99.90
26230;DHT22;13960;50.860;4.352;2023-02-01T09:54:17;6.80;99.90
26230;DHT22;13960;50.860;4.352;2023-02-01T10:01:48;7.00;99.90
26230;DHT22;13960;50.860;4.352;2023-02-01T10:04:14;7.10;99.90
26230;DHT22;13960;50.860;4.352;2023-02-01T10:09:27;7.10;99.90
26230;DHT22;13960;50.860;4.352;2023-02-01T10:22:41;7.40;99.90
26230;DHT22;13960;50.860;4.352;2023-02-01T10:27:38;7.40;99.90
26230;DHT22;13960;50.860;4.352;2023-02-01T10:30:17;7.40;99.90
26230;DHT22;13960;50.860;4.352;2023-02-01T10:32:43;7.50;99.90
26230;DHT22;13960;50.860;4.352;2023-02-01T10:35:13;7.50;99.90
26230;DHT22;13960;50.860;4.352;2023-02-01T10:37:40;7.70;99.90
26230;DHT22;13960;50.860;4.352;2023-02-01T10:40:17;7.70;99.90
26230;DHT22;13960;50.860;4.352;2023-02-01T10:42:45;7.70;99.90
26230;DHT22;13960;50.860;4.352;2023-02-01T10:45:17;7.70;99.90
26230;DHT22;13960;50.860;4.352;2023-02-01T10:47:43;7.80;99.90
26230;DHT22;13960;50.860;4.352;2023-02-01T10:52:54;7.90;99.90
26230;DHT22;13960;50.860;4.352;2023-02-01T10:55:29;7.90;99.90
26230;DHT22;13960;50.860;4.352;2023-02-01T10:57:57;7.90;99.90
26230;DHT22;13960;50.860;4.352;2023-02-01T11:00:23;8.00;99.90
26230;DHT22;13960;50.860;4.352;2023-02-01T11:02:49;8.10;99.90
26230;DHT22;13960;50.860;4.352;2023-02-01T11:05:16;8.30;99.90
26230;DHT22;13960;50.860;4.352;2023-02-01T11:07:48;8.30;99.90
26230;DHT22;13960;50.860;4.352;2023-02-01T11:13:01;8.40;99.90
26230;DHT22;13960;50.860;4.352;2023-02-01T11:15:27;8.40;99.90
26230;DHT22;13960;50.860;4.352;2023-02-01T11:17:53;8.40;99.90
26230;DHT22;13960;50.860;4.352;2023-02-01T11:20:39;8.40;99.90
26230;DHT22;13960;50.860;4.352;2023-02-01T11:23:11;8.50;99.90
26230;DHT22;13960;50.860;4.352;2023-02-01T11:25:37;8.50;99.90
26230;DHT22;13960;50.860;4.352;2023-02-01T11:28:03;8.50;99.90
26230;DHT22;13960;50.860;4.352;2023-02-01T11:30:36;8.60;99.90
26230;DHT22;13960;50.860;4.352;2023-02-01T11:33:03;8.60;99.90
26230;DHT22;13960;50.860;4.352;2023-02-01T11:35:30;8.60;99.90
26230;DHT22;13960;50.860;4.352;2023-02-01T11:37:58;8.70;99.90
26230;DHT22;13960;50.860;4.352;2023-02-01T11:42:57;8.60;99.90
26230;DHT22;13960;50.860;4.352;2023-02-01T11:45:27;8.70;99.90
26230;DHT22;13960;50.860;4.352;2023-02-01T11:47:54;8.70;99.90
26230;DHT22;13960;50.860;4.352;2023-02-01T11:55:33;8.80;99.90
26230;DHT22;13960;50.860;4.352;2023-02-01T12:11:43;9.20;99.90
26230;DHT22;13960;50.860;4.352;2023-02-01T12:19:31;9.20;99.90
26230;DHT22;13960;50.860;4.352;2023-02-01T12:29:47;9.60;99.90
26230;DHT22;13960;50.860;4.352;2023-02-01T12:37:58;9.50;99.90
26230;DHT22;13960;50.860;4.352;2023-02-01T12:42:58;9.90;99.90
26230;DHT22;13960;50.860;4.352;2023-02-01T12:47:52;9.80;99.90
26230;DHT22;13960;50.860;4.352;2023-02-01T12:53:08;9.90;99.90
26230;DHT22;13960;50.860;4.352;2023-02-01T13:00:39;9.90;99.90
26230;DHT22;13960;50.860;4.352;2023-02-01T13:03:11;9.90;99.90
26230;DHT22;13960;50.860;4.352;2023-02-01T13:08:15;9.90;99.90
26230;DHT22;13960;50.860;4.352;2023-02-01T13:10:43;10.00;99.90
26230;DHT22;13960;50.860;4.352;2023-02-01T13:15:43;10.00;99.90
26230;DHT22;13960;50.860;4.352;2023-02-01T13:18:13;10.00;99.90
26230;DHT22;13960;50.860;4.352;2023-02-01T13:20:45;10.10;99.90
26230;DHT22;13960;50.860;4.352;2023-02-01T13:23:34;10.30;99.90
26230;DHT22;13960;50.860;4.352;2023-02-01T13:25:58;10.30;99.90
26230;DHT22;13960;50.860;4.352;2023-02-01T13:28:32;10.20;99.90
26230;DHT22;13960;50.860;4.352;2023-02-01T13:41:25;10.30;99.90
26230;DHT22;13960;50.860;4.352;2023-02-01T13:44:16;10.20;99.90
26230;DHT22;13960;50.860;4.352;2023-02-01T13:46:39;10.20;99.90
26230;DHT22;13960;50.860;4.352;2023-02-01T13:49:07;10.30;99.90
26230;DHT22;13960;50.860;4.352;2023-02-01T13:51:45;10.10;99.90
26230;DHT22;13960;50.860;4.352;2023-02-01T13:57:34;10.20;99.90
26230;DHT22;13960;50.860;4.352;2023-02-01T14:02:48;10.40;99.90
26230;DHT22;13960;50.860;4.352;2023-02-01T14:16:29;10.50;99.90
26230;DHT22;13960;50.860;4.352;2023-02-01T14:23:58;10.30;99.90
26230;DHT22;13960;50.860;4.352;2023-02-01T14:34:13;10.00;99.90
26230;DHT22;13960;50.860;4.352;2023-02-01T14:36:43;10.00;99.90
26230;DHT22;13960;50.860;4.352;2023-02-01T14:41:54;10.00;99.90
26230;DHT22;13960;50.860;4.352;2023-02-01T14:44:28;10.10;99.90
26230;DHT22;13960;50.860;4.352;2023-02-01T14:47:11;10.00;99.90
26230;DHT22;13960;50.860;4.352;2023-02-01T14:50:03;9.80;99.90
26230;DHT22;13960;50.860;4.352;2023-02-01T14:52:34;9.80;99.90
26230;DHT22;13960;50.860;4.352;2023-02-01T14:55:03;9.80;99.90
26230;DHT22;13960;50.860;4.352;2023-02-01T14:57:30;9.70;99.90
26230;DHT22;13960;50.860;4.352;2023-02-01T15:04:04;9.70;99.90
26230;DHT22;13960;50.860;4.352;2023-02-01T15:05:57;9.70;99.90
26230;DHT22;13960;50.860;4.352;2023-02-01T15:08:26;9.80;99.90
26230;DHT22;13960;50.860;4.352;2023-02-01T15:10:54;9.70;99.90
26230;DHT22;13960;50.860;4.352;2023-02-01T15:13:26;9.60;99.90
26230;DHT22;13960;50.860;4.352;2023-02-01T15:16:05;9.60;99.90
26230;DHT22;13960;50.860;4.352;2023-02-01T15:18:31;9.60;99.90
26230;DHT22;13960;50.860;4.352;2023-02-01T15:20:58;9.60;99.90
26230;DHT22;13960;50.860;4.352;2023-02-01T15:23:23;9.60;99.90
26230;DHT22;13960;50.860;4.352;2023-02-01T15:25:49;9.50;99.90
26230;DHT22;13960;50.860;4.352;2023-02-01T15:28:15;9.50;99.90
26230;DHT22;13960;50.860;4.352;2023-02-01T15:30:51;9.50;99.90
26230;DHT22;13960;50.860;4.352;2023-02-01T15:33:17;9.40;99.90
26230;DHT22;13960;50.860;4.352;2023-02-01T15:35:45;9.40;99.90
26230;DHT22;13960;50.860;4.352;2023-02-01T15:38:19;9.40;99.90
26230;DHT22;13960;50.860;4.352;2023-02-01T15:41:04;9.40;99.90
26230;DHT22;13960;50.860;4.352;2023-02-01T15:43:43;9.40;99.90
26230;DHT22;13960;50.860;4.352;2023-02-01T15:46:15;9.40;99.90
26230;DHT22;13960;50.860;4.352;2023-02-01T15:48:46;9.40;99.90
26230;DHT22;13960;50.860;4.352;2023-02-01T15:51:18;9.40;99.90
26230;DHT22;13960;50.860;4.352;2023-02-01T15:53:46;9.30;99.90
26230;DHT22;13960;50.860;4.352;2023-02-01T15:56:13;9.30;99.90
26230;DHT22;13960;50.860;4.352;2023-02-01T15:58:41;9.40;99.90
26230;DHT22;13960;50.860;4.352;2023-02-01T16:01:10;9.30;99.90
26230;DHT22;13960;50.860;4.352;2023-02-01T16:03:42;9.30;99.90
26230;DHT22;13960;50.860;4.352;2023-02-01T16:06:10;9.20;99.90
26230;DHT22;13960;50.860;4.352;2023-02-01T16:08:37;9.30;99.90
26230;DHT22;13960;50.860;4.352;2023-02-01T16:13:34;9.30;99.90
26230;DHT22;13960;50.860;4.352;2023-02-01T16:16:00;9.10;99.90
26230;DHT22;13960;50.860;4.352;2023-02-01T16:18:26;9.20;99.90
26230;DHT22;13960;50.860;4.352;2023-02-01T16:20:52;9.20;99.90
26230;DHT22;13960;50.860;4.352;2023-02-01T16:23:17;9.20;99.90
26230;DHT22;13960;50.860;4.352;2023-02-01T16:25:45;9.20;99.90
26230;DHT22;13960;50.860;4.352;2023-02-01T16:28:11;9.20;99.90
26230;DHT22;13960;50.860;4.352;2023-02-01T16:30:37;9.20;99.90
26230;DHT22;13960;50.860;4.352;2023-02-01T16:33:02;9.10;99.90
26230;DHT22;13960;50.860;4.352;2023-02-01T16:35:37;9.20;99.90
26230;DHT22;13960;50.860;4.352;2023-02-01T16:38:10;9.10;99.90
26230;DHT22;13960;50.860;4.352;2023-02-01T16:40:39;9.20;99.90
26230;DHT22;13960;50.860;4.352;2023-02-01T16:43:14;9.20;99.90
26230;DHT22;13960;50.860;4.352;2023-02-01T16:45:46;9.10;99.90
26230;DHT22;13960;50.860;4.352;2023-02-01T16:48:20;9.10;99.90
26230;DHT22;13960;50.860;4.352;2023-02-01T16:50:47;9.10;99.90
26230;DHT22;13960;50.860;4.352;2023-02-01T16:53:14;9.10;99.90
26230;DHT22;13960;50.860;4.352;2023-02-01T16:55:41;9.10;99.90
26230;DHT22;13960;50.860;4.352;2023-02-01T16:58:09;9.00;99.90
26230;DHT22;13960;50.860;4.352;2023-02-01T17:00:38;9.00;99.90
26230;DHT22;13960;50.860;4.352;2023-02-01T17:03:03;9.00;99.90
26230;DHT22;13960;50.860;4.352;2023-02-01T17:05:36;9.00;99.90
26230;DHT22;13960;50.860;4.352;2023-02-01T17:08:03;9.10;99.90
26230;DHT22;13960;50.860;4.352;2023-02-01T17:10:29;9.00;99.90
26230;DHT22;13960;50.860;4.352;2023-02-01T17:12:55;9.00;99.90
26230;DHT22;13960;50.860;4.352;2023-02-01T17:15:23;8.90;99.90
26230;DHT22;13960;50.860;4.352;2023-02-01T17:17:50;9.00;99.90
26230;DHT22;13960;50.860;4.352;2023-02-01T17:20:20;9.00;99.90
26230;DHT22;13960;50.860;4.352;2023-02-01T17:22:46;8.90;99.90
26230;DHT22;13960;50.860;4.352;2023-02-01T17:25:19;8.90;99.90
26230;DHT22;13960;50.860;4.352;2023-02-01T17:27:46;8.90;99.90
26230;DHT22;13960;50.860;4.352;2023-02-01T17:30:13;8.90;99.90
26230;DHT22;13960;50.860;4.352;2023-02-01T17:32:38;8.90;99.90
26230;DHT22;13960;50.860;4.352;2023-02-01T17:35:26;8.80;99.90
26230;DHT22;13960;50.860;4.352;2023-02-01T17:37:52;8.80;99.90
26230;DHT22;13960;50.860;4.352;2023-02-01T17:40:18;8.80;99.90
26230;DHT22;13960;50.860;4.352;2023-02-01T17:42:43;8.80;99.90
26230;DHT22;13960;50.860;4.352;2023-02-01T17:47:41;8.80;99.90
26230;DHT22;13960;50.860;4.352;2023-02-01T17:50:07;8.80;99.90
26230;DHT22;13960;50.860;4.352;2023-02-01T17:52:33;8.70;99.90
26230;DHT22;13960;50.860;4.352;2023-02-01T17:55:00;8.70;99.90
26230;DHT22;13960;50.860;4.352;2023-02-01T17:57:27;8.70;99.90
26230;DHT22;13960;50.860;4.352;2023-02-01T17:59:55;8.70;99.90
26230;DHT22;13960;50.860;4.352;2023-02-01T18:02:21;8.70;99.90
26230;DHT22;13960;50.860;4.352;2023-02-01T18:04:47;8.70;99.90
26230;DHT22;13960;50.860;4.352;2023-02-01T18:07:14;8.70;99.90
26230;DHT22;13960;50.860;4.352;2023-02-01T18:09:39;8.70;99.90
26230;DHT22;13960;50.860;4.352;2023-02-01T18:12:05;8.70;99.90
26230;DHT22;13960;50.860;4.352;2023-02-01T18:14:31;8.70;99.90
26230;DHT22;13960;50.860;4.352;2023-02-01T18:16:58;8.80;99.90
26230;DHT22;13960;50.860;4.352;2023-02-01T18:19:23;8.90;99.90
26230;DHT22;13960;50.860;4.352;2023-02-01T18:21:49;8.80;99.90
26230;DHT22;13960;50.860;4.352;2023-02-01T18:24:17;8.70;99.90
26230;DHT22;13960;50.860;4.352;2023-02-01T18:26:43;8.80;99.90
26230;DHT22;13960;50.860;4.352;2023-02-01T18:29:10;8.80;99.90
26230;DHT22;13960;50.860;4.352;2023-02-01T18:31:38;8.80;99.90
26230;DHT22;13960;50.860;4.352;2023-02-01T18:34:07;8.80;99.90
26230;DHT22;13960;50.860;4.352;2023-02-01T18:36:33;8.80;99.90
26230;DHT22;13960;50.860;4.352;2023-02-01T18:38:59;8.80;99.90
26230;DHT22;13960;50.860;4.352;2023-02-01T18:41:24;8.80;99.90
26230;DHT22;13960;50.860;4.352;2023-02-01T18:43:50;8.90;99.90
26230;DHT22;13960;50.860;4.352;2023-02-01T18:46:17;8.80;99.90
26230;DHT22;13960;50.860;4.352;2023-02-01T18:48:42;8.80;99.90
26230;DHT22;13960;50.860;4.352;2023-02-01T18:51:12;8.80;99.90